Time;durP1;ratioP1;P1;durP2;ratioP2;P2;SDS_P1;SDS_P2;PMS_P1;PMS_P2;Temp;Humidity;BMP_temperature;BMP_pressure;BME280_temperature;BME280_humidity;BME280_pressure;Samples;Min_cycle;Max_cycle;Signal;HPM_P1;HPM_P2
2022/09/28 00:02:43;;;;;;;3.05;2.25;;;;;;;7.32;100.00;99349.69;6222877;28;20053;-72
2022/09/28 00:05:44;;;;;;;4.05;2.08;;;;;;;7.34;100.00;99345.22;6222274;28;20054;-72
2022/09/28 00:08:48;;;;;;;2.47;2.13;;;;;;;7.34;100.00;99347.81;6222948;28;20046;-72
2022/09/28 00:11:51;;;;;;;3.35;2.13;;;;;;;7.33;100.00;99338.31;6222106;28;20139;-72
2022/09/28 00:14:52;;;;;;;5.25;2.97;;;;;;;7.29;100.00;99328.97;6221641;28;20050;-72
2022/09/28 00:17:54;;;;;;;4.60;2.70;;;;;;;7.27;100.00;99336.09;6222369;28;20061;-72
2022/09/28 00:21:04;;;;;;;3.80;2.05;;;;;;;7.28;100.00;99334.31;6222153;28;20054;-73
2022/09/28 00:24:18;;;;;;;5.88;2.63;;;;;;;7.28;100.00;99326.47;6221833;28;20506;-71
2022/09/28 00:27:20;;;;;;;6.32;2.42;;;;;;;7.22;100.00;99330.31;6222532;28;20050;-72
2022/09/28 00:30:22;;;;;;;5.32;2.30;;;;;;;7.21;100.00;99326.00;6221945;28;20056;-72
2022/09/28 00:33:23;;;;;;;4.38;1.77;;;;;;;7.19;100.00;99322.66;6222290;28;20056;-72
2022/09/28 00:36:25;;;;;;;5.20;2.88;;;;;;;7.18;100.00;99328.00;6221864;28;20054;-72
2022/09/28 00:39:30;;;;;;;3.78;2.42;;;;;;;7.22;100.00;99329.44;6221992;28;20128;-72
2022/09/28 00:42:31;;;;;;;5.00;2.67;;;;;;;7.22;100.00;99321.63;6221942;28;20053;-71
2022/09/28 00:45:33;;;;;;;3.83;2.33;;;;;;;7.24;100.00;99317.16;6221255;28;20056;-72
2022/09/28 00:48:38;;;;;;;4.68;2.75;;;;;;;7.24;100.00;99314.53;6222154;28;20498;-71
2022/09/28 00:51:43;;;;;;;5.45;2.97;;;;;;;7.28;100.00;99308.19;6221557;28;20057;-71
2022/09/28 00:54:47;;;;;;;5.15;2.78;;;;;;;7.33;100.00;99312.19;6221745;28;20057;-72
2022/09/28 00:57:51;;;;;;;4.82;2.83;;;;;;;7.40;100.00;99304.78;6221841;28;20072;-72
2022/09/28 01:00:54;;;;;;;7.32;3.42;;;;;;;7.44;100.00;99308.03;6222433;28;20049;-71
2022/09/28 01:03:58;;;;;;;5.25;3.47;;;;;;;7.45;100.00;99304.47;6221307;28;20052;-72
2022/09/28 01:07:00;;;;;;;5.28;2.95;;;;;;;7.47;100.00;99298.22;6221862;28;20425;-72
2022/09/28 01:10:03;;;;;;;6.40;3.08;;;;;;;7.51;100.00;99291.88;6221249;28;20050;-72
2022/09/28 01:13:05;;;;;;;6.68;3.33;;;;;;;7.52;100.00;99290.94;6221924;28;20498;-72
2022/09/28 01:16:12;;;;;;;8.07;4.00;;;;;;;7.55;100.00;99282.06;6221389;28;20073;-72
2022/09/28 01:19:31;;;;;;;6.65;3.70;;;;;;;7.58;100.00;99287.09;6221604;28;20046;-72
2022/09/28 01:23:00;;;;;;;8.27;4.28;;;;;;;7.60;100.00;99285.22;6221420;28;20057;-72
2022/09/28 01:26:51;;;;;;;10.82;5.22;;;;;;;7.59;100.00;99273.09;6221688;28;20077;-71
2022/09/28 01:30:01;;;;;;;8.93;4.72;;;;;;;7.61;100.00;99274.66;6127013;29;20052;-73
2022/09/28 01:33:07;;;;;;;6.00;3.55;;;;;;;7.63;100.00;99275.41;6132856;28;20051;-72
2022/09/28 01:36:14;;;;;;;13.00;5.22;;;;;;;7.61;100.00;99274.66;6225913;28;20075;-72
2022/09/28 01:39:19;;;;;;;8.95;4.75;;;;;;;7.66;100.00;99276.13;6226191;28;20049;-73
2022/09/28 01:42:27;;;;;;;9.30;5.40;;;;;;;7.67;100.00;99267.34;6225832;28;20050;-72
2022/09/28 01:45:32;;;;;;;7.68;4.90;;;;;;;7.66;100.00;99270.91;6225624;28;20056;-72
2022/09/28 01:48:40;;;;;;;7.65;4.55;;;;;;;7.67;100.00;99262.13;6225943;28;20057;-73
2022/09/28 01:51:47;;;;;;;8.88;4.55;;;;;;;7.68;100.00;99262.03;6225620;28;20053;-72
2022/09/28 01:54:52;;;;;;;8.48;4.68;;;;;;;7.71;100.00;99255.75;6225621;28;20057;-73
2022/09/28 01:58:00;;;;;;;7.68;4.32;;;;;;;7.73;100.00;99254.72;6225739;28;20054;-72
2022/09/28 02:01:08;;;;;;;9.90;5.45;;;;;;;7.73;100.00;99246.88;6225354;28;20056;-72
2022/09/28 02:04:15;;;;;;;13.05;5.57;;;;;;;7.76;100.00;99246.66;6225136;28;20050;-72
2022/09/28 02:07:21;;;;;;;8.05;4.40;;;;;;;7.73;100.00;99246.88;6225467;28;20417;-73
2022/09/28 02:10:27;;;;;;;9.38;4.72;;;;;;;7.71;100.00;99243.50;6224843;28;20056;-72
2022/09/28 02:13:35;;;;;;;6.28;3.45;;;;;;;7.71;100.00;99238.28;6225765;28;20050;-73
2022/09/28 02:16:40;;;;;;;7.57;3.92;;;;;;;7.70;100.00;99241.84;6224959;28;20050;-73
2022/09/28 02:19:42;;;;;;;6.18;3.38;;;;;;;7.70;100.00;99236.63;6225165;28;20524;-72
2022/09/28 02:22:49;;;;;;;6.50;4.18;;;;;;;7.63;100.00;99238.81;6224830;28;20460;-71
2022/09/28 02:26:00;;;;;;;11.10;4.32;;;;;;;7.59;100.00;99234.72;6224580;28;20064;-72
2022/09/28 02:29:03;;;;;;;7.97;3.75;;;;;;;7.60;100.00;99230.31;6224944;28;20056;-72
2022/09/28 02:32:04;;;;;;;5.07;3.55;;;;;;;7.59;100.00;99239.09;6224540;28;20050;-73
2022/09/28 02:35:07;;;;;;;5.78;3.38;;;;;;;7.60;100.00;99235.56;6224184;28;20085;-72
2022/09/28 02:38:10;;;;;;;4.40;2.20;;;;;;;7.51;100.00;99233.53;6223850;28;20053;-72
2022/09/28 02:41:24;;;;;;;8.82;2.60;;;;;;;7.47;100.00;99232.91;6221111;28;20417;-72
2022/09/28 02:44:57;;;;;;;7.95;2.00;;;;;;;7.47;100.00;99238.13;6224179;28;20057;-72
2022/09/28 02:48:09;;;;;;;4.82;2.70;;;;;;;7.53;100.00;99236.88;6215813;28;20395;-72
2022/09/28 02:51:19;;;;;;;4.05;2.42;;;;;;;7.52;100.00;99236.03;6224029;28;20414;-72
2022/09/28 02:54:37;;;;;;;4.90;2.67;;;;;;;7.53;100.00;99229.88;6224239;28;20053;-72
2022/09/28 02:57:53;;;;;;;3.83;2.13;;;;;;;7.52;100.00;99225.59;6226438;28;20049;-72
2022/09/28 03:01:04;;;;;;;4.43;2.83;;;;;;;7.54;100.00;99228.09;6231121;28;20653;-72
2022/09/28 03:04:12;;;;;;;8.15;2.42;;;;;;;7.52;100.00;99220.34;6233934;28;20056;-71
2022/09/28 03:07:20;;;;;;;4.90;2.38;;;;;;;7.53;100.00;99218.56;6231165;28;20505;-72
2022/09/28 03:10:28;;;;;;;4.88;2.35;;;;;;;7.52;100.00;99222.13;6234306;28;20132;-72
2022/09/28 03:13:30;;;;;;;4.05;2.22;;;;;;;7.52;100.00;99209.06;6235712;28;20061;-72
2022/09/28 03:16:33;;;;;;;3.95;1.92;;;;;;;7.52;100.00;99216.91;6232898;28;20046;-71
2022/09/28 03:19:35;;;;;;;3.67;1.65;;;;;;;7.51;100.00;99204.78;6231046;28;20045;-72
2022/09/28 03:22:37;;;;;;;1.92;1.30;;;;;;;7.50;100.00;99203.94;6235156;28;20049;-72
2022/09/28 03:25:38;;;;;;;2.38;1.48;;;;;;;7.51;100.00;99204.78;6233721;28;20045;-72
2022/09/28 03:28:40;;;;;;;2.33;1.27;;;;;;;7.50;100.00;99203.94;6232543;28;20046;-72
2022/09/28 03:31:43;;;;;;;2.28;1.58;;;;;;;7.43;100.00;99201.81;6235843;28;20056;-71
2022/09/28 03:34:45;;;;;;;3.33;1.75;;;;;;;7.41;100.00;99203.72;6232933;28;20177;-72
2022/09/28 03:37:46;;;;;;;2.25;1.42;;;;;;;7.41;100.00;99201.94;6234705;28;20489;-71
2022/09/28 03:40:53;;;;;;;1.75;1.25;;;;;;;7.38;100.00;99197.72;6233304;28;20056;-71
2022/09/28 03:43:54;;;;;;;6.28;2.13;;;;;;;7.37;100.00;99192.63;6237584;28;20049;-71
2022/09/28 03:46:57;;;;;;;2.53;1.58;;;;;;;7.36;100.00;99191.78;6248020;28;20045;-72
2022/09/28 03:49:58;;;;;;;3.15;1.67;;;;;;;7.36;100.00;99198.78;6247041;28;20064;-72
2022/09/28 03:53:03;;;;;;;4.00;1.60;;;;;;;7.38;100.00;99196.91;6247731;28;20045;-72
2022/09/28 03:56:07;;;;;;;7.20;1.95;;;;;;;7.37;100.00;99205.69;6247094;28;20061;-71
2022/09/28 03:59:08;;;;;;;2.80;1.67;;;;;;;7.34;100.00;99201.47;6247703;28;20049;-72
2022/09/28 04:02:11;;;;;;;1.45;1.15;;;;;;;7.36;100.00;99207.47;6247007;28;20493;-72
2022/09/28 04:05:12;;;;;;;2.05;1.65;;;;;;;7.41;100.00;99201.94;6247264;28;20075;-72
2022/09/28 04:08:13;;;;;;;2.35;1.50;;;;;;;7.43;100.00;99197.44;6247570;28;20049;-72
2022/09/28 04:11:14;;;;;;;4.03;2.22;;;;;;;7.45;100.00;99198.19;6246805;28;20642;-72
2022/09/28 04:14:16;;;;;;;2.97;1.92;;;;;;;7.43;100.00;99191.38;6246946;28;20052;-72
2022/09/28 04:17:19;;;;;;;2.42;1.50;;;;;;;7.43;100.00;99188.75;6247093;28;20045;-72
2022/09/28 04:20:20;;;;;;;2.67;1.30;;;;;;;7.40;100.00;99195.00;6246790;28;20050;-72
2022/09/28 04:23:22;;;;;;;2.70;1.58;;;;;;;7.38;100.00;99195.13;6246954;28;20057;-72
2022/09/28 04:26:25;;;;;;;2.45;1.65;;;;;;;7.40;100.00;99197.63;6246890;28;20053;-72
2022/09/28 04:29:26;;;;;;;2.47;1.73;;;;;;;7.39;100.00;99201.19;6246825;28;20149;-72
2022/09/28 04:32:29;;;;;;;2.38;1.58;;;;;;;7.37;100.00;99200.47;6246600;28;20045;-72
2022/09/28 04:35:30;;;;;;;1.48;1.13;;;;;;;7.36;100.00;99202.25;6246409;28;20056;-72
2022/09/28 04:38:32;;;;;;;2.65;1.55;;;;;;;7.33;100.00;99199.81;6247259;28;20049;-72
2022/09/28 04:41:33;;;;;;;1.63;1.10;;;;;;;7.31;100.00;99203.44;6246134;28;20046;-72
2022/09/28 04:44:34;;;;;;;2.50;1.50;;;;;;;7.29;100.00;99200.94;6246045;28;20046;-72
2022/09/28 04:47:37;;;;;;;2.88;1.60;;;;;;;7.30;100.00;99200.00;6246679;28;20061;-72
2022/09/28 04:50:38;;;;;;;3.78;1.60;;;;;;;7.28;100.00;99204.50;6246287;28;20049;-72
2022/09/28 04:53:40;;;;;;;2.88;1.45;;;;;;;7.26;100.00;99198.53;6246724;28;20512;-72
2022/09/28 04:56:41;;;;;;;3.88;2.42;;;;;;;7.25;100.00;99194.25;6246482;28;20057;-72
2022/09/28 04:59:42;;;;;;;3.95;1.90;;;;;;;7.23;100.00;99195.28;6246332;28;20054;-72
2022/09/28 05:02:45;;;;;;;2.33;1.52;;;;;;;7.26;100.00;99195.06;6249542;28;20060;-72
2022/09/28 05:05:47;;;;;;;2.83;1.92;;;;;;;7.26;100.00;99187.22;6251187;28;20060;-72
2022/09/28 05:08:49;;;;;;;7.53;1.80;;;;;;;7.24;100.00;99199.56;6247886;28;20156;-71
2022/09/28 05:11:51;;;;;;;4.25;1.52;;;;;;;7.20;100.00;99191.09;6226592;28;20055;-72
2022/09/28 05:14:53;;;;;;;3.33;1.80;;;;;;;7.17;100.00;99200.88;6226428;28;20651;-72
2022/09/28 05:17:55;;;;;;;2.60;1.48;;;;;;;7.15;100.00;99200.16;6226563;28;20060;-72
2022/09/28 05:20:57;;;;;;;5.68;1.83;;;;;;;7.16;100.00;99204.44;6226260;28;20403;-72
2022/09/28 05:23:58;;;;;;;3.42;2.05;;;;;;;7.14;100.00;99201.94;6226052;28;20049;-72
2022/09/28 05:26:59;;;;;;;3.20;2.00;;;;;;;7.17;100.00;99200.88;6226586;28;20413;-74
2022/09/28 05:30:01;;;;;;;4.95;2.00;;;;;;;7.15;100.00;99206.22;6225902;28;20056;-72
2022/09/28 05:33:04;;;;;;;2.70;1.63;;;;;;;7.11;100.00;99209.97;6226525;28;20050;-72
2022/09/28 05:36:08;;;;;;;2.97;1.42;;;;;;;7.10;100.00;99203.06;6225817;28;20046;-72
2022/09/28 05:39:10;;;;;;;2.88;2.10;;;;;;;7.09;100.00;99209.25;6222241;28;20038;-72
2022/09/28 05:42:11;;;;;;;2.38;1.60;;;;;;;7.08;100.00;99191.88;6224235;28;20421;-71
2022/09/28 05:45:12;;;;;;;5.65;2.20;;;;;;;7.07;100.00;99200.66;6225050;28;20046;-72
2022/09/28 05:48:15;;;;;;;2.58;1.83;;;;;;;7.09;100.00;99202.25;6225269;28;20461;-72
2022/09/28 05:51:16;;;;;;;3.13;1.77;;;;;;;7.09;100.00;99198.78;6222472;28;20046;-72
2022/09/28 05:54:18;;;;;;;3.00;1.58;;;;;;;7.07;100.00;99201.47;6225283;28;20418;-72
2022/09/28 05:57:19;;;;;;;4.32;1.90;;;;;;;7.10;100.00;99203.06;6225982;28;20064;-72
2022/09/28 06:00:21;;;;;;;2.85;1.58;;;;;;;7.09;100.00;99202.25;6225429;28;20387;-71
2022/09/28 06:03:24;;;;;;;3.38;2.00;;;;;;;7.15;100.00;99208.00;6225838;28;20516;-72
2022/09/28 06:06:26;;;;;;;2.97;2.00;;;;;;;7.19;100.00;99202.47;6225585;28;20096;-72
2022/09/28 06:09:27;;;;;;;3.95;1.83;;;;;;;7.22;100.00;99206.66;6225311;28;20053;-72
2022/09/28 06:12:28;;;;;;;3.00;1.63;;;;;;;7.24;100.00;99204.78;6224696;28;20490;-72
2022/09/28 06:15:32;;;;;;;2.95;1.50;;;;;;;7.26;100.00;99208.13;6224209;28;20053;-72
2022/09/28 06:18:35;;;;;;;4.07;1.70;;;;;;;7.31;100.00;99204.31;6225629;28;20056;-72
2022/09/28 06:21:36;;;;;;;3.15;1.70;;;;;;;7.31;100.00;99211.28;6224832;28;20453;-71
2022/09/28 06:24:37;;;;;;;7.85;1.63;;;;;;;7.32;100.00;99213.81;6224956;28;20049;-71
2022/09/28 06:27:41;;;;;;;2.83;1.50;;;;;;;7.33;100.00;99217.28;6225246;28;20050;-72
2022/09/28 06:30:43;;;;;;;3.47;1.73;;;;;;;7.34;100.00;99216.31;6224621;28;20046;-72
2022/09/28 06:33:48;;;;;;;2.70;1.40;;;;;;;7.37;100.00;99218.75;6224847;28;20061;-72
2022/09/28 06:36:49;;;;;;;2.38;1.63;;;;;;;7.37;100.00;99223.97;6224903;28;20050;-71
2022/09/28 06:39:50;;;;;;;2.70;1.52;;;;;;;7.38;100.00;99226.47;6218063;28;20057;-72
2022/09/28 06:42:56;;;;;;;2.72;1.63;;;;;;;7.34;100.00;99225.00;6222604;28;20069;-71
2022/09/28 06:45:58;;;;;;;4.03;1.77;;;;;;;7.40;100.00;99234.22;6223639;28;20185;-71
2022/09/28 06:49:00;;;;;;;2.53;1.33;;;;;;;7.42;100.00;99242.81;6223701;28;20050;-72
2022/09/28 06:52:01;;;;;;;2.92;1.90;;;;;;;7.43;100.00;99235.81;6223062;28;20041;-71
2022/09/28 06:55:03;;;;;;;1.23;0.88;;;;;;;7.46;100.00;99246.06;6220960;28;20048;-72
2022/09/28 06:58:07;;;;;;;2.40;1.50;;;;;;;7.45;100.00;99245.22;6212511;28;20054;-71
2022/09/28 07:01:09;;;;;;;7.78;1.70;;;;;;;7.48;100.00;99246.78;6215839;28;20514;-72
2022/09/28 07:04:12;;;;;;;2.00;1.40;;;;;;;7.50;100.00;99247.56;6219823;28;20154;-71
2022/09/28 07:07:13;;;;;;;2.08;1.73;;;;;;;7.49;100.00;99243.25;6224075;28;20418;-71
2022/09/28 07:10:15;;;;;;;2.88;1.90;;;;;;;7.49;100.00;99243.25;6216020;28;20092;-72
2022/09/28 07:13:17;;;;;;;3.67;2.08;;;;;;;7.48;100.00;99245.00;6236830;28;20052;-72
2022/09/28 07:16:18;;;;;;;1.98;1.60;;;;;;;7.51;100.00;99249.22;6238196;28;20167;-72
2022/09/28 07:19:21;;;;;;;3.47;1.63;;;;;;;7.47;100.00;99253.81;6235478;28;20505;-72
2022/09/28 07:22:22;;;;;;;3.08;1.45;;;;;;;7.40;100.00;99260.34;6221408;28;20417;-71
2022/09/28 07:25:24;;;;;;;2.30;1.30;;;;;;;7.42;100.00;99257.66;6210358;28;20054;-72
2022/09/28 07:28:26;;;;;;;3.35;1.65;;;;;;;7.43;100.00;99262.78;6221470;28;20046;-72
2022/09/28 07:31:28;;;;;;;2.30;1.35;;;;;;;7.30;100.00;99269.72;6233045;28;20045;-74
2022/09/28 07:34:38;;;;;;;2.20;1.73;;;;;;;7.35;100.00;99267.66;6231427;28;20054;-74
2022/09/28 07:37:40;;;;;;;1.35;1.15;;;;;;;7.37;100.00;99269.25;6225423;28;20058;-74
2022/09/28 07:44:04;;;;;;;2.00;1.10;;;;;;;7.51;100.00;99276.19;6222853;28;20058;-74
2022/09/28 07:47:06;;;;;;;1.02;0.80;;;;;;;7.56;100.00;99283.75;6223102;28;20103;-75
2022/09/28 07:50:09;;;;;;;3.22;1.35;;;;;;;7.53;100.00;99282.16;6222833;28;20528;-74
2022/09/28 07:53:11;;;;;;;2.20;1.55;;;;;;;7.54;100.00;99285.59;6223068;28;20046;-74
2022/09/28 07:56:16;;;;;;;2.42;1.30;;;;;;;7.67;100.00;99288.25;6222525;28;20061;-75
2022/09/28 07:59:17;;;;;;;1.75;1.23;;;;;;;7.75;100.00;99292.06;6199819;28;20047;-74
2022/09/28 08:02:20;;;;;;;3.30;1.58;;;;;;;7.78;100.00;99293.66;6216168;28;20418;-76
2022/09/28 08:05:22;;;;;;;3.38;2.25;;;;;;;7.65;100.00;99292.78;6222826;28;20050;-74
2022/09/28 08:08:24;;;;;;;2.17;1.20;;;;;;;7.76;100.00;99303.34;6222698;28;20056;-74
2022/09/28 08:11:25;;;;;;;3.70;2.17;;;;;;;7.77;100.00;99307.69;6222506;28;20046;-73
2022/09/28 08:14:27;;;;;;;3.05;2.05;;;;;;;7.76;100.00;99306.81;6222297;28;20054;-73
2022/09/28 08:17:28;;;;;;;3.55;1.90;;;;;;;7.72;100.00;99299.25;6222806;28;20399;-73
2022/09/28 08:23:51;;;;;;;4.32;2.45;;;;;;;7.79;100.00;99309.22;6222141;28;20136;-73
2022/09/28 08:26:54;;;;;;;3.03;1.85;;;;;;;7.84;100.00;99311.56;6222368;28;20061;-73
2022/09/28 08:29:55;;;;;;;3.28;2.47;;;;;;;7.78;100.00;99315.41;6222274;28;20050;-73
2022/09/28 08:32:57;;;;;;;5.15;2.50;;;;;;;7.97;100.00;99319.44;6222262;28;20050;-73
2022/09/28 08:36:01;;;;;;;2.90;2.13;;;;;;;7.99;100.00;99321.00;6221054;28;20050;-73
2022/09/28 08:39:02;;;;;;;3.70;2.05;;;;;;;8.07;100.00;99320.50;6222529;28;20054;-74
2022/09/28 08:42:15;;;;;;;4.05;2.17;;;;;;;8.13;100.00;99320.97;6232452;28;20049;-74
2022/09/28 08:45:22;;;;;;;1.77;1.30;;;;;;;8.21;100.00;99325.66;6245689;28;20557;-73
2022/09/28 08:48:43;;;;;;;2.70;1.60;;;;;;;8.21;100.00;99330.06;6241704;28;20516;-73
2022/09/28 08:51:54;;;;;;;2.67;1.70;;;;;;;8.17;100.00;99329.41;6231210;28;20042;-73
2022/09/28 08:55:00;;;;;;;2.80;2.03;;;;;;;8.21;100.00;99328.28;6228475;28;20042;-73
2022/09/28 08:58:09;;;;;;;2.00;1.23;;;;;;;8.22;100.00;99340.44;6233215;28;20490;-74
2022/09/28 09:01:15;;;;;;;3.53;1.50;;;;;;;8.24;100.00;99329.88;6232917;28;20425;-74
2022/09/28 09:04:16;;;;;;;3.25;1.45;;;;;;;8.28;100.00;99344.44;6228265;28;20049;-74
2022/09/28 09:07:50;;;;;;;3.22;1.80;;;;;;;8.39;100.00;99331.47;6233582;28;20053;-74
2022/09/28 09:10:57;;;;;;;1.98;1.35;;;;;;;8.58;100.00;99347.66;6232422;28;20046;-74
2022/09/28 09:14:27;;;;;;;1.52;1.40;;;;;;;8.37;100.00;99344.69;6229046;28;20053;-74
2022/09/28 09:17:42;;;;;;;1.52;1.25;;;;;;;8.48;100.00;99340.50;6225448;28;20157;-75
2022/09/28 09:20:49;;;;;;;2.78;1.75;;;;;;;8.63;100.00;99345.56;6221601;28;20063;-74
2022/09/28 09:23:55;;;;;;;2.00;1.30;;;;;;;8.62;100.00;99343.84;6221214;28;20325;-74
2022/09/28 09:27:05;;;;;;;1.88;1.40;;;;;;;8.67;100.00;99343.53;6221704;28;20061;-73
2022/09/28 09:30:11;;;;;;;2.97;1.58;;;;;;;8.72;100.00;99345.84;6221447;28;20054;-74
2022/09/28 09:33:38;;;;;;;4.20;1.60;;;;;;;8.74;100.00;99357.91;6221594;28;20129;-74
2022/09/28 09:36:53;;;;;;;3.90;1.60;;;;;;;8.83;100.00;99353.81;6221293;28;20513;-73
2022/09/28 09:40:17;;;;;;;2.13;1.48;;;;;;;8.81;100.00;99353.06;6221084;28;20049;-74
2022/09/28 09:43:54;;;;;;;2.60;1.80;;;;;;;8.92;100.00;99355.81;6221213;28;20054;-74
2022/09/28 09:47:06;;;;;;;2.03;1.38;;;;;;;8.94;100.00;99360.94;6220433;28;20061;-73
2022/09/28 09:50:13;;;;;;;3.83;1.55;;;;;;;8.89;100.00;99363.88;6225682;28;20057;-74
2022/09/28 09:53:21;;;;;;;2.38;1.60;;;;;;;8.83;100.00;99365.13;6225625;28;20203;-74
2022/09/28 09:56:31;;;;;;;3.22;2.15;;;;;;;8.80;100.00;99364.50;6225552;28;20072;-74
2022/09/28 09:59:34;;;;;;;;;;;;;;;8.82;100.00;99366.09;6226650;28;20049;-73
2022/09/28 10:02:36;;;;;;;3.63;1.77;;;;;;;8.77;100.00;99372.59;6225518;28;19932;-74
2022/09/28 10:05:38;;;;;;;3.20;1.92;;;;;;;8.69;100.00;99369.66;6224925;28;20418;-74
2022/09/28 10:08:46;;;;;;;3.40;2.00;;;;;;;8.61;100.00;99378.00;6225608;28;20387;-74
2022/09/28 10:11:50;;;;;;;2.97;2.00;;;;;;;8.62;100.00;99375.28;6225006;28;20069;-73
2022/09/28 10:14:54;;;;;;;3.65;2.28;;;;;;;8.53;100.00;99377.69;6225095;28;20149;-74
2022/09/28 10:17:59;;;;;;;3.15;2.05;;;;;;;8.59;100.00;99382.53;6225263;28;20046;-74
2022/09/28 10:21:00;;;;;;;4.20;2.22;;;;;;;8.65;100.00;99384.72;6224842;28;20387;-74
2022/09/28 10:24:02;;;;;;;3.25;1.95;;;;;;;8.55;100.00;99383.66;6224631;28;20058;-74
2022/09/28 10:27:08;;;;;;;3.90;2.22;;;;;;;8.56;100.00;99380.09;6225315;28;20137;-74
2022/09/28 10:30:17;;;;;;;6.90;1.83;;;;;;;8.47;100.00;99389.41;6224398;28;20417;-74
2022/09/28 10:33:30;;;;;;;4.28;2.13;;;;;;;8.49;100.00;99387.50;6202604;28;20053;-74
2022/09/28 10:36:37;;;;;;;4.25;2.00;;;;;;;8.47;100.00;99393.81;6200086;28;20050;-74
2022/09/28 10:39:46;;;;;;;3.70;2.08;;;;;;;8.47;100.00;99396.44;6200461;28;20057;-73
2022/09/28 10:42:49;;;;;;;;;;;;;;;8.50;100.00;99394.44;6200942;28;20429;-74
2022/09/28 10:46:00;;;;;;;3.10;1.90;;;;;;;8.58;100.00;99402.63;6209229;28;19921;-73
2022/09/28 10:49:04;;;;;;;3.03;1.90;;;;;;;8.55;100.00;99402.84;6234422;28;20132;-74
2022/09/28 10:52:07;;;;;;;2.35;1.73;;;;;;;8.50;100.00;99404.91;6237082;28;20620;-74
2022/09/28 10:55:27;;;;;;;2.90;1.60;;;;;;;8.56;100.00;99404.50;6248419;28;20115;-74
2022/09/28 10:58:36;;;;;;;2.40;1.50;;;;;;;8.63;100.00;99405.78;6249165;28;20512;-74
2022/09/28 11:01:38;;;;;;;2.78;2.05;;;;;;;8.67;100.00;99403.78;6248209;28;20049;-74
2022/09/28 11:04:42;;;;;;;1.98;1.40;;;;;;;8.70;100.00;99408.81;6248497;28;20053;-73
2022/09/28 11:07:46;;;;;;;1.88;1.30;;;;;;;8.73;100.00;99416.47;6243790;28;20042;-74
2022/09/28 11:10:47;;;;;;;3.90;1.90;;;;;;;8.74;100.00;99412.06;6223889;28;20049;-74
2022/09/28 11:13:52;;;;;;;3.30;1.90;;;;;;;8.76;100.00;99411.00;6223493;28;20061;-74
2022/09/28 11:17:15;;;;;;;2.60;1.80;;;;;;;8.79;100.00;99412.59;6224306;28;20421;-74
2022/09/28 11:20:29;;;;;;;2.25;1.52;;;;;;;8.78;100.00;99413.56;6223520;28;20054;-74
2022/09/28 11:23:31;;;;;;;4.28;1.83;;;;;;;8.79;100.00;99415.22;6223805;28;20053;-74
2022/09/28 11:26:39;;;;;;;1.60;1.15;;;;;;;8.78;100.00;99417.00;6223359;28;20054;-74
2022/09/28 11:29:44;;;;;;;1.97;1.30;;;;;;;8.82;100.00;99415.88;6223576;28;20050;-74
2022/09/28 11:32:47;;;;;;;1.92;1.42;;;;;;;8.86;100.00;99416.50;6224280;28;20451;-76
2022/09/28 11:35:56;;;;;;;1.88;1.33;;;;;;;8.89;100.00;99413.66;6223050;28;20053;-75
2022/09/28 11:39:08;;;;;;;1.40;1.08;;;;;;;8.95;100.00;99418.50;6223560;28;20189;-75
2022/09/28 11:42:24;;;;;;;2.65;1.70;;;;;;;9.00;100.00;99423.44;6223027;28;20504;-74
2022/09/28 11:45:40;;;;;;;2.03;1.35;;;;;;;9.00;100.00;99416.41;6222730;28;20053;-74
2022/09/28 11:48:45;;;;;;;2.72;1.23;;;;;;;9.06;100.00;99417.75;6223533;28;20494;-74
2022/09/28 11:51:51;;;;;;;2.28;1.50;;;;;;;9.09;100.00;99418.38;6222876;28;20513;-74
2022/09/28 11:54:59;;;;;;;4.70;2.33;;;;;;;9.12;100.00;99427.81;6222882;28;20058;-74
2022/09/28 11:58:06;;;;;;;3.92;2.00;;;;;;;9.08;100.00;99424.59;6222931;28;20054;-74
2022/09/28 12:01:21;;;;;;;3.28;2.40;;;;;;;9.00;100.00;99426.03;6222769;28;20437;-74
2022/09/28 12:04:31;;;;;;;2.40;1.80;;;;;;;8.95;100.00;99436.84;6222369;28;20728;-74
2022/09/28 12:07:37;;;;;;;4.47;2.15;;;;;;;8.85;100.00;99435.75;6226182;28;20045;-74
2022/09/28 12:10:46;;;;;;;2.65;2.25;;;;;;;8.88;100.00;99435.56;6246718;28;20398;-74
2022/09/28 12:13:52;;;;;;;2.88;2.05;;;;;;;8.93;100.00;99437.88;6246711;28;20362;-73
2022/09/28 12:17:00;;;;;;;2.70;1.65;;;;;;;8.92;100.00;99444.06;6247179;28;20052;-73
2022/09/28 12:20:12;;;;;;;3.37;2.37;;;;;;;8.92;100.00;99439.66;6243334;28;20085;-74
2022/09/28 12:23:18;;;;;;;3.15;2.20;;;;;;;8.94;100.00;99444.78;6244304;28;20052;-74
2022/09/28 12:26:30;;;;;;;9.48;4.38;;;;;;;8.93;100.00;99446.56;6246507;28;20057;-74
2022/09/28 12:29:37;;;;;;;4.13;2.88;;;;;;;8.95;100.00;99446.44;6223703;28;20052;-74
2022/09/28 12:32:44;;;;;;;3.60;2.40;;;;;;;8.97;100.00;99442.78;6222042;28;20531;-73
2022/09/28 12:36:01;;;;;;;3.63;2.15;;;;;;;9.03;100.00;99438.91;6221778;28;20061;-73
2022/09/28 12:39:15;;;;;;;4.13;1.65;;;;;;;9.10;100.00;99438.41;6222353;28;20062;-73
2022/09/28 12:42:28;;;;;;;2.45;1.60;;;;;;;9.18;100.00;99440.50;6221776;28;20413;-73
2022/09/28 12:45:41;;;;;;;2.38;1.80;;;;;;;9.23;100.00;99437.56;6221752;28;20046;-74
2022/09/28 12:49:03;;;;;;;2.83;1.88;;;;;;;9.36;100.00;99438.41;6222298;28;20046;-74
2022/09/28 12:52:17;;;;;;;2.30;1.60;;;;;;;9.51;100.00;99442.56;6221655;28;20048;-73
2022/09/28 12:55:34;;;;;;;4.63;2.25;;;;;;;9.95;100.00;99438.59;6218815;28;20057;-74
2022/09/28 12:58:51;;;;;;;1.38;1.25;;;;;;;10.47;100.00;99447.13;6221822;28;20046;-73
2022/09/28 13:02:14;;;;;;;1.90;1.30;;;;;;;10.65;100.00;99449.22;6215870;28;20077;-73
2022/09/28 13:05:51;;;;;;;1.17;1.02;;;;;;;10.61;100.00;99453.03;6221413;28;20049;-74
2022/09/28 13:09:14;;;;;;;1.40;1.10;;;;;;;10.50;100.00;99444.28;6235847;28;20420;-73
2022/09/28 13:12:37;;;;;;;2.00;1.20;;;;;;;10.49;100.00;99450.47;6246286;28;20054;-73
2022/09/28 13:15:44;;;;;;;1.45;1.00;;;;;;;10.58;100.00;99447.16;6246068;28;20052;-73
2022/09/28 13:18:53;;;;;;;1.65;0.88;;;;;;;10.66;100.00;99444.78;6225995;28;20046;-74
2022/09/28 13:22:06;;;;;;;1.13;0.73;;;;;;;10.66;100.00;99447.44;6214603;28;20056;-73
2022/09/28 13:25:15;;;;;;;0.43;0.43;;;;;;;10.55;100.00;99445.59;6219314;28;20046;-72
2022/09/28 13:28:20;;;;;;;0.50;0.50;;;;;;;10.55;100.00;99450.03;6223098;28;20077;-73
2022/09/28 13:31:26;;;;;;;1.02;0.50;;;;;;;10.26;100.00;99452.97;6226472;28;20046;-73
2022/09/28 13:34:30;;;;;;;0.20;0.20;;;;;;;10.24;100.00;99449.63;6225833;28;20084;-73
2022/09/28 13:37:33;;;;;;;0.20;0.20;;;;;;;10.32;100.00;99452.56;6226715;28;20050;-72
2022/09/28 13:41:16;;;;;;;0.40;0.40;;;;;;;10.72;100.00;99454.00;6226021;28;20093;-72
2022/09/28 13:44:43;;;;;;;0.30;0.30;;;;;;;11.00;100.00;99451.00;6212739;28;20060;-73
2022/09/28 13:48:00;;;;;;;0.95;0.40;;;;;;;11.03;99.44;99455.16;6226240;28;20053;-72
2022/09/28 13:51:10;;;;;;;1.23;0.70;;;;;;;11.12;97.03;99455.31;6225294;28;20054;-73
2022/09/28 13:54:30;;;;;;;1.92;1.30;;;;;;;11.27;97.59;99447.22;6225597;28;20053;-72
2022/09/28 13:57:45;;;;;;;1.05;0.95;;;;;;;11.54;95.93;99452.97;6226072;28;20054;-73
2022/09/28 14:00:50;;;;;;;1.52;1.05;;;;;;;12.02;92.43;99450.06;6225800;28;20054;-72
2022/09/28 14:04:09;;;;;;;1.75;1.08;;;;;;;12.24;94.19;99446.53;6225170;28;20042;-73
2022/09/28 14:07:16;;;;;;;1.20;0.90;;;;;;;12.16;92.81;99448.94;6225868;28;20061;-73
2022/09/28 14:10:23;;;;;;;0.70;0.63;;;;;;;12.07;94.13;99449.69;6225262;28;20204;-72
2022/09/28 14:13:58;;;;;;;2.53;1.10;;;;;;;11.92;99.22;99459.66;6225525;28;20146;-73
2022/09/28 14:17:44;;;;;;;3.47;0.90;;;;;;;11.72;100.00;99448.06;6225393;28;20449;-73
2022/09/28 14:20:58;;;;;;;2.17;0.93;;;;;;;11.53;99.42;99460.97;6204759;28;20046;-73
2022/09/28 14:24:15;;;;;;;1.55;1.00;;;;;;;11.47;96.43;99457.03;6224930;28;20050;-73
2022/09/28 14:27:50;;;;;;;1.92;0.95;;;;;;;11.33;100.00;99455.47;6225421;28;20494;-72
2022/09/28 14:30:54;;;;;;;2.38;1.13;;;;;;;11.31;100.00;99467.91;6212235;28;20050;-73
2022/09/28 14:33:57;;;;;;;5.07;1.13;;;;;;;11.16;97.73;99463.81;6218765;28;20050;-74
2022/09/28 14:44:02;;;;;;;1.52;1.10;;;;;;;10.91;100.00;99464.84;6215894;28;20041;-73
2022/09/28 14:47:26;;;;;;;2.83;1.05;;;;;;;10.85;100.00;99460.84;6226933;28;20049;-73
2022/09/28 14:50:28;;;;;;;1.40;1.10;;;;;;;10.86;100.00;99464.34;6233377;28;20050;-73
2022/09/28 14:53:30;;;;;;;1.15;0.88;;;;;;;10.82;100.00;99471.63;6242767;28;20046;-73
2022/09/28 14:56:38;;;;;;;1.27;1.00;;;;;;;10.77;100.00;99471.13;6243490;28;20084;-73